Time;durP1;ratioP1;P1;durP2;ratioP2;P2;SDS_P1;SDS_P2;PMS_P1;PMS_P2;Temp;Humidity;BMP_temperature;BMP_pressure;BME280_temperature;BME280_humidity;BME280_pressure;Samples;Min_cycle;Max_cycle;Signal;HPM_P1;HPM_P2
2022/05/09 00:02:04;;;;;;;18.77;6.92;;;;;;;7.58;61.54;101734.69;1729910;82;20907;-68
2022/05/09 00:04:30;;;;;;;15.03;6.50;;;;;;;7.57;61.57;101742.28;1746896;80;21003;-69
2022/05/09 00:06:56;;;;;;;18.90;6.33;;;;;;;7.53;61.61;101734.55;1724236;83;21078;-68
2022/05/09 00:09:22;;;;;;;19.25;8.68;;;;;;;7.52;61.65;101742.17;1757463;81;21058;-68
2022/05/09 00:11:48;;;;;;;20.72;11.22;;;;;;;7.50;61.68;101748.06;1759700;80;21141;-68
2022/05/09 00:14:14;;;;;;;24.05;11.12;;;;;;;7.46;61.74;101745.75;1737553;82;21090;-68
2022/05/09 00:16:40;;;;;;;24.10;11.28;;;;;;;7.42;61.80;101744.33;1770822;79;21056;-68
2022/05/09 00:19:08;;;;;;;20.02;9.18;;;;;;;7.37;61.84;101745.98;1751076;80;21001;-69
2022/05/09 00:21:39;;;;;;;23.85;8.30;;;;;;;7.37;61.92;101750.45;1740103;81;21691;-68
2022/05/09 00:24:05;;;;;;;13.88;7.58;;;;;;;7.32;61.99;101749.45;1720662;82;21137;-69
2022/05/09 00:26:31;;;;;;;15.55;8.05;;;;;;;7.31;62.08;101751.77;1758560;81;21006;-69
2022/05/09 00:29:02;;;;;;;17.05;9.15;;;;;;;7.32;62.17;101758.74;1760214;80;21102;-69
2022/05/09 00:31:28;;;;;;;;;;;;;;;7.34;62.25;101754.19;1749360;80;21519;-68
2022/05/09 00:33:54;;;;;;;17.52;8.73;;;;;;;7.36;62.34;101760.20;1730289;81;20188;-68
2022/05/09 00:36:21;;;;;;;14.55;7.12;;;;;;;7.36;62.41;101764.19;1743028;81;21136;-68
2022/05/09 00:38:49;;;;;;;13.32;7.40;;;;;;;7.39;62.48;101762.63;1731047;81;21025;-68
2022/05/09 00:44:02;;;;;;;22.17;6.97;;;;;;;7.40;62.65;101763.00;1729709;82;21002;-68
2022/05/09 00:46:28;;;;;;;16.55;6.35;;;;;;;7.40;62.77;101767.45;1707063;84;21061;-68
2022/05/09 00:49:28;;;;;;;16.97;6.53;;;;;;;7.39;62.86;101769.27;1713507;83;21768;-68
2022/05/09 00:52:00;;;;;;;11.63;5.43;;;;;;;7.38;62.96;101758.78;1758149;80;21003;-68
2022/05/09 00:54:27;;;;;;;18.00;6.47;;;;;;;7.37;63.07;101768.55;1754707;81;21015;-68
2022/05/09 00:57:00;;;;;;;17.32;6.30;;;;;;;7.37;63.17;101769.88;1739003;80;21062;-68
2022/05/09 00:59:25;;;;;;;14.18;6.50;;;;;;;7.35;63.24;101768.30;1757345;79;21508;-68
2022/05/09 01:01:51;;;;;;;14.75;6.05;;;;;;;7.32;63.35;101772.48;1756392;81;21987;-68
2022/05/09 01:04:22;;;;;;;15.58;7.03;;;;;;;7.30;63.45;101772.63;1739311;81;21037;-68
2022/05/09 01:06:48;;;;;;;15.63;8.23;;;;;;;7.30;63.54;101776.60;1754214;81;21053;-70
2022/05/09 01:09:14;;;;;;;17.15;10.70;;;;;;;7.27;63.63;101778.16;1759952;81;21503;-68
2022/05/09 01:11:42;;;;;;;16.35;9.78;;;;;;;7.26;63.75;101769.83;1766806;81;21458;-68
2022/05/09 01:14:17;;;;;;;22.42;9.78;;;;;;;7.24;63.85;101775.75;1747869;81;21121;-68
2022/05/09 01:16:43;;;;;;;16.80;9.10;;;;;;;7.22;63.95;101774.99;1763062;81;21052;-68
2022/05/09 01:19:31;;;;;;;15.83;7.67;;;;;;;7.19;64.06;101779.20;1734855;81;21025;-68
2022/05/09 01:21:58;;;;;;;18.15;11.18;;;;;;;7.15;64.19;101772.43;1730755;82;21025;-67
2022/05/09 01:24:25;;;;;;;30.75;13.28;;;;;;;7.11;64.34;101778.92;1733901;81;21486;-68
2022/05/09 01:26:52;;;;;;;26.05;16.62;;;;;;;7.10;64.45;101774.59;1732171;82;21198;-68
2022/05/09 01:29:59;;;;;;;22.75;15.75;;;;;;;7.10;64.58;101779.91;1739536;81;21008;-68
2022/05/09 01:32:30;;;;;;;24.12;12.58;;;;;;;7.10;64.75;101779.05;1763738;81;21048;-68
2022/05/09 01:35:31;;;;;;;20.55;11.97;;;;;;;7.10;64.93;101781.23;1762281;80;21016;-68
2022/05/09 01:38:37;;;;;;;20.00;11.48;;;;;;;7.10;65.10;101779.91;1762115;81;21049;-68
2022/05/09 01:41:03;;;;;;;26.80;16.40;;;;;;;7.12;65.28;101779.30;1772720;80;21014;-68
2022/05/09 01:43:41;;;;;;;21.95;13.28;;;;;;;7.12;65.49;101785.08;1757921;81;21034;-68
2022/05/09 01:46:15;;;;;;;28.80;14.05;;;;;;;7.11;65.67;101784.73;1733319;81;20975;-68
2022/05/09 01:51:26;;;;;;;19.42;12.58;;;;;;;7.05;66.03;101796.63;1750642;81;21050;-68
2022/05/09 01:53:52;;;;;;;18.20;11.22;;;;;;;7.04;66.23;101801.55;1726809;82;21529;-68
2022/05/09 01:56:23;;;;;;;17.60;11.18;;;;;;;7.02;66.39;101796.86;1728177;81;21011;-68
2022/05/09 01:58:50;;;;;;;17.75;11.05;;;;;;;6.97;66.51;101796.33;1726770;83;21550;-68
2022/05/09 02:01:17;;;;;;;20.75;11.85;;;;;;;6.94;66.70;101789.93;1726340;82;20987;-68
2022/05/09 02:03:49;;;;;;;18.35;10.75;;;;;;;6.91;66.85;101795.46;1736569;81;21034;-68
2022/05/09 02:06:12;;;;;;;21.77;12.07;;;;;;;6.88;67.01;101795.69;1755100;81;21117;-68
2022/05/09 02:08:39;;;;;;;22.90;12.55;;;;;;;6.85;67.16;101791.94;1740487;81;21062;-68
2022/05/09 02:11:05;;;;;;;21.55;12.33;;;;;;;6.82;67.30;101794.82;1727121;81;21503;-68
2022/05/09 02:13:31;;;;;;;24.60;11.70;;;;;;;6.78;67.45;101793.34;1756541;81;21011;-68
2022/05/09 02:15:58;;;;;;;27.40;12.73;;;;;;;6.74;67.61;101790.55;1756869;81;21500;-68
2022/05/09 02:18:24;;;;;;;16.87;10.75;;;;;;;6.69;67.72;101786.05;1755222;81;21860;-68
2022/05/09 02:20:51;;;;;;;18.73;11.50;;;;;;;6.66;67.88;101794.22;1756858;81;20899;-68
2022/05/09 02:23:17;;;;;;;21.68;11.68;;;;;;;6.61;68.01;101788.42;1756368;81;21018;-68
2022/05/09 02:25:45;;;;;;;19.07;11.97;;;;;;;6.58;68.12;101788.64;1755796;81;21003;-68
2022/05/09 02:28:12;;;;;;;24.47;12.55;;;;;;;6.53;68.25;101789.81;1723543;81;21522;-68
2022/05/09 02:30:38;;;;;;;20.43;12.35;;;;;;;6.49;68.39;101792.31;1721184;83;21071;-68
2022/05/09 02:33:05;;;;;;;28.15;12.82;;;;;;;6.46;68.53;101795.19;1721248;83;21025;-68
2022/05/09 02:35:31;;;;;;;20.15;12.65;;;;;;;6.43;68.65;101791.91;1730737;81;20995;-68
2022/05/09 02:37:58;;;;;;;22.32;12.85;;;;;;;6.39;68.77;101800.55;1756936;81;21078;-68
2022/05/09 02:40:24;;;;;;;23.42;12.95;;;;;;;6.37;68.92;101797.14;1756989;81;21018;-68
2022/05/09 02:42:52;;;;;;;25.43;13.58;;;;;;;6.34;69.05;101806.64;1756923;81;21929;-68
2022/05/09 02:45:18;;;;;;;23.47;12.85;;;;;;;6.30;69.17;101806.48;1756256;81;21035;-68
2022/05/09 02:47:45;;;;;;;30.68;14.50;;;;;;;6.27;69.32;101808.02;1756662;80;21090;-68
2022/05/09 02:50:11;;;;;;;22.67;14.90;;;;;;;6.25;69.45;101809.09;1756557;81;21034;-68
2022/05/09 02:52:37;;;;;;;25.43;15.88;;;;;;;6.22;69.56;101807.99;1756718;81;21050;-69
2022/05/09 02:55:05;;;;;;;26.57;16.52;;;;;;;6.19;69.70;101809.06;1756388;81;21779;-68
2022/05/09 02:57:31;;;;;;;32.95;20.00;;;;;;;6.15;69.83;101812.87;1756220;81;21054;-68
2022/05/09 02:59:57;;;;;;;46.15;25.02;;;;;;;6.13;69.96;101812.12;1756466;80;21042;-68
2022/05/09 03:02:23;;;;;;;40.33;21.95;;;;;;;6.12;70.08;101809.13;1756153;80;21026;-68
2022/05/09 03:04:49;;;;;;;43.87;21.77;;;;;;;6.10;70.23;101808.36;1755676;81;21581;-68
2022/05/09 03:07:17;;;;;;;36.13;21.33;;;;;;;6.09;70.34;101807.98;1728527;81;21978;-68
2022/05/09 03:09:44;;;;;;;30.32;17.52;;;;;;;6.09;70.45;101814.60;1746416;81;21014;-68
2022/05/09 03:12:11;;;;;;;25.10;16.82;;;;;;;6.08;70.58;101818.70;1756895;81;21510;-68
2022/05/09 03:14:37;;;;;;;30.00;17.73;;;;;;;6.09;70.69;101821.73;1756692;81;20983;-68
2022/05/09 03:17:04;;;;;;;26.48;17.05;;;;;;;6.10;70.84;101821.60;1756927;81;21089;-68
2022/05/09 03:19:30;;;;;;;30.57;16.30;;;;;;;6.11;70.96;101819.33;1754882;81;21138;-68
2022/05/09 03:21:56;;;;;;;34.53;19.35;;;;;;;6.13;71.08;101825.36;1756777;80;20963;-68
2022/05/09 03:24:22;;;;;;;32.53;19.00;;;;;;;6.14;71.21;101823.09;1756165;81;21034;-68
2022/05/09 03:26:49;;;;;;;45.03;21.85;;;;;;;6.16;71.35;101825.14;1752410;81;21693;-68
2022/05/09 03:29:16;;;;;;;57.55;27.13;;;;;;;6.16;71.46;101825.14;1726659;83;21461;-68
2022/05/09 03:31:42;;;;;;;50.25;25.02;;;;;;;6.20;71.59;101827.95;1726761;83;21491;-68
2022/05/09 03:34:08;;;;;;;45.15;20.48;;;;;;;6.22;71.73;101825.20;1742409;81;20987;-68
2022/05/09 03:36:34;;;;;;;35.38;18.48;;;;;;;6.27;71.86;101830.54;1756286;81;20995;-68
2022/05/09 03:39:01;;;;;;;35.03;18.60;;;;;;;6.32;71.95;101835.05;1756596;81;20979;-68
2022/05/09 03:41:27;;;;;;;28.23;17.50;;;;;;;6.36;72.06;101837.87;1755998;81;21542;-68
2022/05/09 03:43:53;;;;;;;31.05;17.85;;;;;;;6.42;72.17;101837.42;1750486;81;21185;-68
2022/05/09 03:46:19;;;;;;;37.95;18.20;;;;;;;6.50;72.25;101835.09;1720709;83;21022;-68
2022/05/09 03:48:45;;;;;;;35.03;19.05;;;;;;;6.57;72.36;101832.84;1753359;80;21010;-68
2022/05/09 03:51:11;;;;;;;29.77;20.62;;;;;;;6.64;72.46;101831.93;1758568;81;20888;-68
2022/05/09 03:53:37;;;;;;;45.23;22.95;;;;;;;6.78;72.60;101833.11;1757578;81;20906;-68
2022/05/09 03:56:05;;;;;;;55.85;26.02;;;;;;;6.97;72.64;101838.77;1757953;81;21081;-68
2022/05/09 03:58:31;;;;;;;44.90;22.07;;;;;;;7.22;72.78;101838.67;1753653;81;21007;-68
2022/05/09 04:00:57;;;;;;;32.63;17.32;;;;;;;7.55;72.90;101845.94;1722834;83;21078;-67
2022/05/09 04:03:23;;;;;;;33.00;18.62;;;;;;;7.86;72.93;101846.64;1722895;83;21027;-68
2022/05/09 04:05:49;;;;;;;29.35;15.60;;;;;;;8.37;72.88;101840.45;1736995;81;20927;-68
2022/05/09 04:08:17;;;;;;;26.68;15.28;;;;;;;8.88;72.81;101847.92;1753931;81;21123;-68
2022/05/09 04:10:44;;;;;;;20.68;13.85;;;;;;;9.22;72.61;101848.20;1758206;81;21046;-68
2022/05/09 04:13:10;;;;;;;25.20;14.43;;;;;;;9.38;72.46;101847.31;1758004;81;21018;-68
2022/05/09 04:18:22;;;;;;;19.60;12.23;;;;;;;10.21;72.23;101855.36;1743722;81;21384;-68
2022/05/09 04:20:49;;;;;;;21.82;12.20;;;;;;;10.41;71.93;101845.66;1758106;81;21124;-68
2022/05/09 04:23:16;;;;;;;21.93;12.70;;;;;;;10.82;71.85;101847.35;1758189;81;21006;-68
2022/05/09 04:25:42;;;;;;;23.85;12.88;;;;;;;11.04;71.47;101855.14;1757948;81;21039;-68
2022/05/09 04:28:08;;;;;;;21.33;12.80;;;;;;;11.31;71.12;101853.98;1744166;81;21662;-68
2022/05/09 04:30:36;;;;;;;17.07;12.78;;;;;;;11.66;70.99;101853.92;1728299;81;21035;-68
2022/05/09 04:33:06;;;;;;;21.07;12.95;;;;;;;12.01;70.49;101850.19;1728303;81;21104;-68
2022/05/09 04:35:33;;;;;;;16.40;12.05;;;;;;;12.41;70.01;101844.11;1746928;81;21061;-69
2022/05/09 04:37:59;;;;;;;17.60;12.37;;;;;;;12.74;69.40;101856.06;1758107;80;21475;-69
2022/05/09 04:40:31;;;;;;;17.65;12.25;;;;;;;12.86;68.83;101857.56;1744106;81;21467;-69
2022/05/09 04:42:58;;;;;;;20.82;12.45;;;;;;;12.87;68.30;101863.77;1727843;82;21078;-69
2022/05/09 04:45:25;;;;;;;17.90;13.15;;;;;;;12.87;67.55;101874.48;1727762;82;21174;-69
2022/05/09 04:47:51;;;;;;;24.92;13.28;;;;;;;12.31;66.87;101867.37;1727961;82;21062;-69
2022/05/09 04:50:21;;;;;;;19.67;12.75;;;;;;;11.78;66.84;101864.86;1736298;81;21559;-69
2022/05/09 04:52:47;;;;;;;19.60;12.18;;;;;;;11.36;67.06;101865.11;1727578;83;21093;-69
2022/05/09 04:55:13;;;;;;;21.27;13.45;;;;;;;11.08;67.22;101862.39;1727998;82;21430;-69
2022/05/09 04:57:39;;;;;;;19.25;13.72;;;;;;;11.02;67.30;101865.09;1734528;80;21122;-69
2022/05/09 05:00:13;;;;;;;20.17;12.78;;;;;;;11.06;67.48;101855.84;1747810;81;21583;-69
2022/05/09 05:02:39;;;;;;;19.25;12.75;;;;;;;11.20;67.51;101866.12;1751051;80;21092;-69
2022/05/09 05:05:06;;;;;;;21.60;18.90;;;;;;;11.24;67.44;101872.88;1728180;83;21101;-69
2022/05/09 05:07:32;;;;;;;19.23;15.25;;;;;;;11.28;67.47;101871.63;1733274;81;21018;-69
2022/05/09 05:09:58;;;;;;;19.62;13.70;;;;;;;11.48;67.51;101875.16;1742211;81;21249;-69
2022/05/09 05:12:24;;;;;;;22.25;13.93;;;;;;;11.84;67.48;101874.98;1727013;81;21021;-69
2022/05/09 05:14:50;;;;;;;19.77;12.82;;;;;;;12.15;67.44;101872.47;1756477;80;21061;-69
2022/05/09 05:17:16;;;;;;;19.00;13.22;;;;;;;12.29;67.24;101878.70;1741621;81;21526;-69
2022/05/09 05:19:44;;;;;;;20.97;13.15;;;;;;;12.26;67.11;101883.01;1729203;81;21511;-69
2022/05/09 05:22:15;;;;;;;20.70;15.05;;;;;;;12.38;67.04;101881.86;1735554;81;21124;-69
2022/05/09 05:24:43;;;;;;;36.83;24.90;;;;;;;12.50;66.86;101869.98;1735699;81;21525;-69
2022/05/09 05:27:09;;;;;;;30.35;22.22;;;;;;;12.53;66.62;101883.06;1727960;83;21011;-70
2022/05/09 05:29:35;;;;;;;24.70;17.82;;;;;;;12.59;66.58;101882.98;1727920;83;21558;-70
2022/05/09 05:32:16;;;;;;;20.02;14.80;;;;;;;12.58;66.29;101890.66;1749713;80;21472;-70
2022/05/09 05:34:42;;;;;;;23.22;14.05;;;;;;;12.95;66.03;101884.77;1720254;83;21501;-70
2022/05/09 05:37:08;;;;;;;16.48;13.22;;;;;;;13.15;66.02;101896.27;1721876;83;21498;-70
2022/05/09 05:39:36;;;;;;;17.85;12.37;;;;;;;13.15;66.02;101896.27;1722480;83;21001;-70
2022/05/09 05:42:04;;;;;;;23.95;17.50;;;;;;;13.19;65.31;101903.02;1728286;82;21066;-70
2022/05/09 05:44:31;;;;;;;23.83;19.10;;;;;;;13.19;65.31;101903.02;1702499;82;38729;-70
2022/05/09 05:46:57;;;;;;;22.48;15.25;;;;;;;13.10;65.09;101898.55;1731645;82;22013;-70
2022/05/09 05:49:23;;;;;;;15.85;12.65;;;;;;;13.39;65.04;101903.24;1702758;82;20986;-70
2022/05/09 05:51:49;;;;;;;17.62;12.07;;;;;;;13.57;64.68;101897.05;1700264;83;21833;-70
2022/05/09 05:54:15;;;;;;;17.30;12.60;;;;;;;13.41;64.38;101901.73;1713270;83;20970;-70
2022/05/09 05:56:41;;;;;;;17.25;11.60;;;;;;;13.55;64.33;101901.70;1706612;83;21527;-70
2022/05/09 05:59:08;;;;;;;16.52;12.43;;;;;;;13.43;64.04;101903.78;1700613;83;21889;-70
2022/05/09 06:01:34;;;;;;;16.48;12.00;;;;;;;13.31;63.90;101895.11;1712654;83;21620;-70
2022/05/09 06:04:00;;;;;;;17.05;12.20;;;;;;;13.45;63.85;101897.27;1712705;82;21065;-69
2022/05/09 06:06:26;;;;;;;14.93;11.38;;;;;;;13.67;63.60;101897.32;1711994;83;21047;-70
2022/05/09 06:08:52;;;;;;;22.93;12.13;;;;;;;13.77;63.41;101904.78;1717366;82;20990;-70
2022/05/09 06:11:18;;;;;;;24.77;18.48;;;;;;;13.66;63.27;101910.86;1700412;83;21175;-70
2022/05/09 06:13:44;;;;;;;18.30;13.10;;;;;;;13.61;63.04;101906.47;1699050;83;20915;-70
2022/05/09 06:16:10;;;;;;;17.70;12.73;;;;;;;13.48;62.88;101905.00;1680331;85;21022;-70
2022/05/09 06:18:36;;;;;;;18.48;12.85;;;;;;;13.54;62.77;101910.76;1711898;83;21495;-70
2022/05/09 06:21:03;;;;;;;20.82;12.30;;;;;;;13.57;62.66;101910.45;1724688;83;21532;-70
2022/05/09 06:23:29;;;;;;;17.02;11.40;;;;;;;13.80;62.64;101905.81;1716567;83;21491;-70
2022/05/09 06:25:56;;;;;;;16.30;11.18;;;;;;;14.02;62.34;101905.84;1711740;83;21020;-70
2022/05/09 06:28:23;;;;;;;15.65;11.60;;;;;;;13.87;62.04;101908.72;1696476;83;21519;-70
2022/05/09 06:30:50;;;;;;;17.17;11.70;;;;;;;13.75;62.01;101902.77;1698020;83;21042;-70
2022/05/09 06:33:23;;;;;;;17.32;11.73;;;;;;;14.07;61.86;101911.59;1699876;83;21085;-70
2022/05/09 06:35:49;;;;;;;16.45;12.68;;;;;;;14.14;61.71;101901.92;1709207;83;21197;-70
2022/05/09 06:38:18;;;;;;;19.60;12.23;;;;;;;14.31;61.58;101898.35;1683219;83;20911;-70
2022/05/09 06:40:44;;;;;;;21.60;14.85;;;;;;;14.36;61.42;101909.47;1700572;83;21094;-70
2022/05/09 06:43:10;;;;;;;20.00;14.98;;;;;;;14.34;61.19;101906.11;1716215;83;21001;-70
2022/05/09 06:45:36;;;;;;;19.27;12.70;;;;;;;14.32;61.12;101905.38;1698035;83;21697;-70
2022/05/09 06:48:03;;;;;;;19.27;12.35;;;;;;;14.31;60.96;101915.80;1708537;83;21839;-70
2022/05/09 06:50:31;;;;;;;21.60;15.53;;;;;;;14.37;60.90;101911.66;1721415;81;21021;-70
2022/05/09 06:52:58;;;;;;;18.92;13.78;;;;;;;14.43;60.68;101919.08;1748203;81;21038;-70
2022/05/09 06:55:25;;;;;;;16.20;11.60;;;;;;;14.52;60.60;101915.95;1746838;81;21067;-70
2022/05/09 06:57:51;;;;;;;13.15;10.80;;;;;;;14.71;60.49;101909.00;1748362;81;21058;-70
2022/05/09 07:00:21;;;;;;;15.63;10.58;;;;;;;14.71;60.33;101913.03;1748042;81;21176;-70
2022/05/09 07:02:47;;;;;;;;;;;;;;;14.84;60.21;101917.48;1744694;80;21116;-70
2022/05/09 07:05:15;;;;;;;13.35;9.00;;;;;;;14.98;60.03;101919.56;1751243;80;20156;-70
2022/05/09 07:07:43;;;;;;;14.70;9.50;;;;;;;14.97;59.86;101917.87;1723562;83;21008;-70
2022/05/09 07:10:11;;;;;;;14.85;9.23;;;;;;;14.81;59.54;101920.50;1752862;81;21511;-69
2022/05/09 07:12:43;;;;;;;13.00;9.45;;;;;;;14.71;59.40;101915.72;1747816;82;21841;-70
2022/05/09 07:15:11;;;;;;;15.68;8.80;;;;;;;14.76;59.28;101916.09;1748026;82;21008;-70
2022/05/09 07:17:37;;;;;;;14.98;9.10;;;;;;;14.90;59.17;101920.86;1717291;83;21032;-70
2022/05/09 07:20:04;;;;;;;16.23;8.90;;;;;;;14.93;58.95;101927.25;1722289;83;20890;-70
2022/05/09 07:22:31;;;;;;;14.35;9.60;;;;;;;14.96;58.84;101925.09;1722092;83;21045;-70
2022/05/09 07:24:57;;;;;;;12.35;9.05;;;;;;;15.09;58.66;101923.31;1722495;83;21132;-70
2022/05/09 07:27:22;;;;;;;12.28;8.68;;;;;;;15.47;58.60;101914.70;1722552;83;20870;-70
2022/05/09 07:29:48;;;;;;;14.60;8.85;;;;;;;15.86;58.32;101917.64;1722500;83;20905;-70
2022/05/09 07:32:14;;;;;;;13.68;8.85;;;;;;;15.79;57.94;101921.16;1722630;83;21048;-70
2022/05/09 07:34:40;;;;;;;14.58;8.43;;;;;;;15.76;57.75;101929.57;1722408;83;21036;-70
2022/05/09 07:37:06;;;;;;;12.95;8.73;;;;;;;15.86;57.57;101924.87;1722741;83;21161;-70
2022/05/09 07:39:32;;;;;;;11.25;8.43;;;;;;;15.97;57.39;101924.55;1722720;83;21300;-70
2022/05/09 07:41:58;;;;;;;14.13;8.18;;;;;;;16.39;57.17;101922.50;1722381;83;21454;-70
2022/05/09 07:44:24;;;;;;;12.05;7.28;;;;;;;16.51;56.87;101925.66;1722791;83;20981;-70
2022/05/09 07:46:50;;;;;;;15.03;8.80;;;;;;;16.32;56.46;101921.50;1722173;83;21699;-70
2022/05/09 07:49:16;;;;;;;13.53;8.23;;;;;;;16.24;56.30;101921.50;1722805;83;21130;-70
2022/05/09 07:51:42;;;;;;;15.53;7.20;;;;;;;16.45;56.16;101921.81;1721448;83;21009;-70
2022/05/09 07:54:08;;;;;;;18.25;7.67;;;;;;;16.53;55.92;101924.16;1721059;83;21662;-70
2022/05/09 07:56:34;;;;;;;10.15;7.05;;;;;;;16.53;55.64;101918.77;1721269;83;21438;-70
2022/05/09 07:59:02;;;;;;;10.58;7.85;;;;;;;16.66;55.39;101929.38;1721287;83;20984;-70
2022/05/09 08:01:28;;;;;;;8.75;7.45;;;;;;;16.68;55.10;101919.25;1721412;83;21798;-70
2022/05/09 08:03:54;;;;;;;11.03;7.58;;;;;;;16.94;55.03;101921.20;1721216;83;21435;-70
2022/05/09 08:06:20;;;;;;;14.07;7.58;;;;;;;17.16;54.75;101916.91;1713058;82;21038;-70
2022/05/09 08:08:48;;;;;;;9.43;7.03;;;;;;;17.09;54.28;101919.97;1706536;84;21077;-69
2022/05/09 08:11:16;;;;;;;11.08;7.25;;;;;;;16.96;54.10;101917.81;1706651;84;21013;-70
2022/05/09 08:13:42;;;;;;;10.75;7.45;;;;;;;16.96;54.00;101911.58;1706468;84;21195;-70
2022/05/09 08:16:08;;;;;;;12.15;7.17;;;;;;;17.19;53.83;101923.29;1706628;84;21498;-70
2022/05/09 08:18:34;;;;;;;10.65;7.50;;;;;;;17.01;53.37;101911.06;1706661;84;21016;-70
2022/05/09 08:21:01;;;;;;;10.98;7.25;;;;;;;16.91;53.26;101913.97;1706385;84;21007;-69
2022/05/09 08:23:28;;;;;;;10.68;7.45;;;;;;;17.16;53.23;101911.52;1706478;84;21069;-70
2022/05/09 08:25:58;;;;;;;14.50;7.60;;;;;;;17.26;52.87;101916.17;1706314;84;21168;-70
2022/05/09 08:28:24;;;;;;;10.23;7.40;;;;;;;17.36;52.85;101924.04;1706379;84;21570;-70
2022/05/09 08:30:52;;;;;;;13.83;7.40;;;;;;;17.30;52.60;101927.45;1706417;84;21493;-70
2022/05/09 08:33:21;;;;;;;9.98;6.85;;;;;;;17.45;52.54;101917.60;1706291;84;21053;-70
2022/05/09 08:35:50;;;;;;;12.27;7.43;;;;;;;17.37;52.35;101922.53;1706869;84;21033;-70
2022/05/09 08:38:17;;;;;;;13.32;6.72;;;;;;;17.15;51.99;101924.66;1706572;84;25796;-70
2022/05/09 08:41:07;;;;;;;9.98;7.08;;;;;;;17.16;51.98;101927.69;1706535;84;20994;-70
2022/05/09 08:43:55;;;;;;;;;;;;;;;17.38;51.92;101924.19;1709282;84;21002;-70
2022/05/09 08:47:10;;;;;;;10.38;7.03;;;;;;;17.36;51.62;101930.78;1706083;84;20190;-71
2022/05/09 08:50:15;;;;;;;11.15;7.22;;;;;;;17.16;51.38;101924.15;1706555;84;22156;-70
2022/05/09 08:52:48;;;;;;;10.10;6.47;;;;;;;17.24;51.42;101928.98;1706481;84;21140;-71
2022/05/09 08:55:13;;;;;;;9.70;7.05;;;;;;;17.47;51.37;101929.88;1706176;84;21049;-71
2022/05/09 08:57:56;;;;;;;15.68;6.53;;;;;;;17.43;51.24;101925.86;1706258;84;21084;-70
2022/05/09 09:00:24;;;;;;;9.93;6.90;;;;;;;17.60;51.24;101931.17;1706056;84;21006;-71
2022/05/09 09:03:03;;;;;;;12.60;6.83;;;;;;;17.75;51.24;101925.34;1706463;84;21128;-70
2022/05/09 09:05:33;;;;;;;12.40;6.47;;;;;;;17.57;50.85;101921.59;1705591;84;21847;-70
2022/05/09 09:08:23;;;;;;;14.10;6.40;;;;;;;17.42;50.79;101921.97;1706315;84;20999;-70
2022/05/09 09:11:21;;;;;;;9.48;5.85;;;;;;;17.55;50.75;101916.02;1675346;84;21019;-70
2022/05/09 09:14:07;;;;;;;8.85;5.50;;;;;;;17.55;50.60;101926.30;1706626;84;21027;-70
2022/05/09 09:16:51;;;;;;;7.72;4.92;;;;;;;17.33;50.29;101930.63;1706629;84;20998;-70
2022/05/09 09:19:43;;;;;;;10.18;4.78;;;;;;;17.29;50.09;101933.34;1706608;84;21553;-70
2022/05/09 09:22:35;;;;;;;7.25;5.00;;;;;;;17.34;49.84;101931.48;1706383;84;21029;-71
2022/05/09 09:25:22;;;;;;;8.95;4.95;;;;;;;17.36;49.48;101923.53;1706429;84;21010;-71
2022/05/09 09:27:53;;;;;;;10.50;5.37;;;;;;;17.37;49.32;101935.17;1706129;82;21066;-70
2022/05/09 09:30:22;;;;;;;7.53;5.03;;;;;;;17.36;48.89;101932.97;1706269;84;21475;-70
2022/05/09 09:32:57;;;;;;;7.45;4.55;;;;;;;17.45;48.86;101921.11;1706587;84;21089;-70
2022/05/09 09:35:41;;;;;;;9.50;4.80;;;;;;;17.47;48.60;101922.30;1706456;84;21530;-70
2022/05/09 09:38:18;;;;;;;7.50;4.58;;;;;;;17.52;48.48;101920.42;1706566;84;21029;-70
2022/05/09 09:40:44;;;;;;;8.18;4.87;;;;;;;17.78;48.36;101915.54;1706591;84;21042;-70
2022/05/09 09:43:10;;;;;;;11.30;4.17;;;;;;;17.83;48.10;101920.75;1736576;82;21054;-70
2022/05/09 09:45:40;;;;;;;11.97;4.55;;;;;;;17.77;47.59;101919.25;1736773;82;21598;-70
2022/05/09 09:48:15;;;;;;;7.72;4.85;;;;;;;17.77;47.38;101918.74;1736550;82;21511;-70
2022/05/09 09:51:06;;;;;;;11.05;3.92;;;;;;;17.88;47.35;101916.13;1721128;82;21045;-70
2022/05/09 09:53:43;;;;;;;6.72;4.03;;;;;;;18.06;47.19;101922.06;1727268;83;20994;-70
2022/05/09 09:56:24;;;;;;;9.25;5.00;;;;;;;18.27;47.06;101915.97;1726787;82;20994;-70
2022/05/09 09:58:53;;;;;;;7.58;3.42;;;;;;;18.38;46.70;101916.38;1725409;82;21102;-70
2022/05/09 10:01:34;;;;;;;10.48;4.15;;;;;;;18.39;46.46;101916.72;1727213;83;21058;-70
2022/05/09 10:04:14;;;;;;;9.23;4.22;;;;;;;18.42;46.13;101908.74;1726842;82;21035;-70
2022/05/09 10:07:01;;;;;;;5.50;3.87;;;;;;;18.43;46.05;101916.67;1714424;83;21015;-70
2022/05/09 10:09:30;;;;;;;8.28;4.17;;;;;;;18.42;45.81;101905.53;1726616;82;21010;-71
2022/05/09 10:12:26;;;;;;;6.23;3.93;;;;;;;18.43;45.48;101899.12;1726529;82;22052;-71
2022/05/09 10:14:52;;;;;;;5.78;3.35;;;;;;;18.39;45.26;101897.80;1726996;82;21908;-71
2022/05/09 10:17:31;;;;;;;6.95;3.80;;;;;;;18.33;45.15;101894.47;1726926;83;21015;-71
2022/05/09 10:20:00;;;;;;;7.67;3.27;;;;;;;18.24;45.17;101901.48;1727278;82;21554;-71
2022/05/09 10:25:28;;;;;;;6.87;3.80;;;;;;;18.09;44.63;101892.00;1727297;83;20987;-71
2022/05/09 10:28:19;;;;;;;6.28;3.33;;;;;;;18.28;44.49;101898.75;1727148;82;21006;-71
2022/05/09 10:30:55;;;;;;;6.62;3.27;;;;;;;18.34;44.21;101893.95;1727191;82;21499;-70
2022/05/09 10:33:34;;;;;;;7.55;3.92;;;;;;;18.41;44.08;101886.29;1727307;83;21014;-71
2022/05/09 10:36:08;;;;;;;7.42;3.50;;;;;;;18.36;43.88;101888.72;1727250;82;20999;-70
2022/05/09 10:38:44;;;;;;;9.25;3.72;;;;;;;18.38;43.92;101883.12;1714654;83;21447;-70
2022/05/09 10:41:20;;;;;;;9.20;3.33;;;;;;;18.55;43.90;101878.41;1727216;82;21054;-70
2022/05/09 10:43:51;;;;;;;8.30;3.15;;;;;;;18.57;43.73;101883.12;1726854;83;21538;-70
2022/05/09 10:46:17;;;;;;;7.08;4.67;;;;;;;18.73;43.69;101874.82;1726871;82;21058;-70
2022/05/09 10:48:52;;;;;;;7.72;4.08;;;;;;;18.77;43.47;101878.32;1727110;82;21054;-70
2022/05/09 10:51:24;;;;;;;7.30;3.30;;;;;;;18.58;43.12;101872.66;1726959;82;21897;-70
2022/05/09 10:54:10;;;;;;;10.08;3.20;;;;;;;18.62;43.13;101867.17;1726235;82;21605;-70
2022/05/09 10:56:45;;;;;;;7.53;3.47;;;;;;;18.83;43.17;101868.10;1725903;82;20999;-71
2022/05/09 10:59:16;;;;;;;9.73;3.85;;;;;;;18.92;42.97;101865.64;1727081;83;21047;-71
2022/05/09 11:01:47;;;;;;;6.30;3.50;;;;;;;19.01;42.84;101865.00;1726345;82;20989;-71
2022/05/09 11:04:16;;;;;;;5.85;3.00;;;;;;;19.18;42.79;101862.91;1727133;83;21290;-71
2022/05/09 11:06:50;;;;;;;8.75;3.33;;;;;;;19.27;42.60;101869.38;1727206;82;21078;-71
2022/05/09 11:09:41;;;;;;;8.85;3.83;;;;;;;19.31;42.54;101857.67;1726544;83;21034;-71
2022/05/09 11:12:27;;;;;;;6.55;3.22;;;;;;;19.30;42.29;101864.09;1727143;82;21049;-71
2022/05/09 11:15:23;;;;;;;5.72;3.15;;;;;;;19.32;42.06;101865.58;1754002;81;21018;-71
2022/05/09 11:18:12;;;;;;;7.50;3.12;;;;;;;19.44;41.97;101860.03;1757352;81;21235;-71
2022/05/09 11:20:58;;;;;;;8.45;3.70;;;;;;;19.50;41.67;101856.22;1757535;81;21011;-71
2022/05/09 11:23:40;;;;;;;6.40;3.52;;;;;;;19.50;41.36;101845.39;1757011;81;21567;-71
2022/05/09 11:26:18;;;;;;;6.37;2.98;;;;;;;19.49;41.22;101845.09;1756695;81;21047;-71
2022/05/09 11:29:35;;;;;;;5.75;3.33;;;;;;;19.48;41.16;101846.11;1756779;81;21051;-71
2022/05/09 11:32:29;;;;;;;7.30;3.40;;;;;;;19.47;41.12;101842.56;1756497;81;21035;-71
2022/05/09 11:35:31;;;;;;;4.53;2.83;;;;;;;19.56;41.00;101832.46;1755216;81;21038;-69
2022/05/09 11:38:43;;;;;;;9.90;3.17;;;;;;;19.49;40.78;101834.27;1752278;81;21066;-70
2022/05/09 11:43:27;;;;;;;6.50;3.45;;;;;;;19.51;40.65;101824.07;1754893;81;21581;-69
2022/05/09 11:44:34;;;;;;;11.90;3.98;;;;;;;19.42;40.43;101826.89;1749213;80;21522;-71
2022/05/09 11:47:22;;;;;;;9.05;4.10;;;;;;;19.39;40.31;101827.77;1742255;81;21724;-71
2022/05/09 11:50:06;;;;;;;14.63;3.75;;;;;;;19.53;40.41;101826.09;1751926;81;21471;-71